sensor_id;sensor_type;location;lat;lon;timestamp;P1;durP1;ratioP1;P2;durP2;ratioP2
32333;SDS011;18810;53.040;8.850;2023-03-14T00:01:51;15.70;;;7.45;;
32333;SDS011;18810;53.040;8.850;2023-03-14T00:04:16;13.00;;;6.90;;
32333;SDS011;18810;53.040;8.850;2023-03-14T00:06:43;14.75;;;7.13;;
32333;SDS011;18810;53.040;8.850;2023-03-14T00:09:08;14.32;;;7.25;;
32333;SDS011;18810;53.040;8.850;2023-03-14T00:11:34;16.73;;;7.40;;
32333;SDS011;18810;53.040;8.850;2023-03-14T00:14:00;14.23;;;7.03;;
32333;SDS011;18810;53.040;8.850;2023-03-14T00:16:26;14.32;;;8.25;;
32333;SDS011;18810;53.040;8.850;2023-03-14T00:18:52;15.00;;;7.78;;
32333;SDS011;18810;53.040;8.850;2023-03-14T00:21:18;18.05;;;7.63;;
32333;SDS011;18810;53.040;8.850;2023-03-14T00:23:44;16.67;;;7.97;;
32333;SDS011;18810;53.040;8.850;2023-03-14T00:26:11;15.60;;;7.10;;
32333;SDS011;18810;53.040;8.850;2023-03-14T00:28:41;12.38;;;6.85;;
32333;SDS011;18810;53.040;8.850;2023-03-14T00:31:08;16.48;;;7.80;;
32333;SDS011;18810;53.040;8.850;2023-03-14T00:33:36;15.13;;;7.47;;
32333;SDS011;18810;53.040;8.850;2023-03-14T00:36:06;18.38;;;7.80;;
32333;SDS011;18810;53.040;8.850;2023-03-14T00:38:35;21.50;;;7.72;;
32333;SDS011;18810;53.040;8.850;2023-03-14T00:41:05;17.80;;;7.72;;
32333;SDS011;18810;53.040;8.850;2023-03-14T00:43:32;13.77;;;6.72;;
32333;SDS011;18810;53.040;8.850;2023-03-14T00:45:58;14.98;;;6.78;;
32333;SDS011;18810;53.040;8.850;2023-03-14T00:48:24;14.48;;;7.47;;
32333;SDS011;18810;53.040;8.850;2023-03-14T00:50:50;15.93;;;7.70;;
32333;SDS011;18810;53.040;8.850;2023-03-14T00:53:16;17.75;;;8.27;;
32333;SDS011;18810;53.040;8.850;2023-03-14T00:55:42;13.52;;;7.97;;
32333;SDS011;18810;53.040;8.850;2023-03-14T00:58:09;18.80;;;8.93;;
32333;SDS011;18810;53.040;8.850;2023-03-14T01:00:36;18.35;;;9.30;;
32333;SDS011;18810;53.040;8.850;2023-03-14T01:03:02;16.45;;;10.45;;
32333;SDS011;18810;53.040;8.850;2023-03-14T01:05:28;23.02;;;9.90;;
32333;SDS011;18810;53.040;8.850;2023-03-14T01:07:54;21.45;;;10.65;;
32333;SDS011;18810;53.040;8.850;2023-03-14T01:10:20;20.83;;;11.25;;
32333;SDS011;18810;53.040;8.850;2023-03-14T01:12:46;19.17;;;11.88;;
32333;SDS011;18810;53.040;8.850;2023-03-14T01:15:12;20.17;;;11.80;;
32333;SDS011;18810;53.040;8.850;2023-03-14T01:17:38;23.83;;;11.45;;
32333;SDS011;18810;53.040;8.850;2023-03-14T01:20:04;23.38;;;11.60;;
32333;SDS011;18810;53.040;8.850;2023-03-14T01:22:34;20.25;;;10.95;;
32333;SDS011;18810;53.040;8.850;2023-03-14T01:25:00;23.88;;;12.43;;
32333;SDS011;18810;53.040;8.850;2023-03-14T01:27:26;21.52;;;11.80;;
32333;SDS011;18810;53.040;8.850;2023-03-14T01:29:51;20.15;;;11.00;;
32333;SDS011;18810;53.040;8.850;2023-03-14T01:32:17;19.33;;;10.30;;
32333;SDS011;18810;53.040;8.850;2023-03-14T01:34:43;24.67;;;11.45;;
32333;SDS011;18810;53.040;8.850;2023-03-14T01:37:08;19.80;;;10.75;;
32333;SDS011;18810;53.040;8.850;2023-03-14T01:39:34;17.70;;;9.90;;
32333;SDS011;18810;53.040;8.850;2023-03-14T01:42:00;20.25;;;10.27;;
32333;SDS011;18810;53.040;8.850;2023-03-14T01:44:26;15.43;;;9.73;;
32333;SDS011;18810;53.040;8.850;2023-03-14T01:46:51;15.98;;;9.00;;
32333;SDS011;18810;53.040;8.850;2023-03-14T01:49:29;17.00;;;8.63;;
32333;SDS011;18810;53.040;8.850;2023-03-14T01:52:00;14.95;;;9.27;;
32333;SDS011;18810;53.040;8.850;2023-03-14T01:59:41;16.33;;;7.65;;
32333;SDS011;18810;53.040;8.850;2023-03-14T02:02:11;12.70;;;7.13;;
32333;SDS011;18810;53.040;8.850;2023-03-14T02:04:39;17.95;;;8.20;;
32333;SDS011;18810;53.040;8.850;2023-03-14T02:07:13;11.55;;;7.22;;
32333;SDS011;18810;53.040;8.850;2023-03-14T02:09:42;14.52;;;8.57;;
32333;SDS011;18810;53.040;8.850;2023-03-14T02:12:11;24.17;;;8.13;;
32333;SDS011;18810;53.040;8.850;2023-03-14T02:14:39;20.25;;;9.10;;
32333;SDS011;18810;53.040;8.850;2023-03-14T02:17:07;20.52;;;7.50;;
32333;SDS011;18810;53.040;8.850;2023-03-14T02:22:20;12.15;;;7.78;;
32333;SDS011;18810;53.040;8.850;2023-03-14T02:24:49;18.70;;;8.55;;
32333;SDS011;18810;53.040;8.850;2023-03-14T02:27:18;11.80;;;7.30;;
32333;SDS011;18810;53.040;8.850;2023-03-14T02:29:56;17.92;;;8.05;;
32333;SDS011;18810;53.040;8.850;2023-03-14T02:32:25;11.30;;;7.20;;
32333;SDS011;18810;53.040;8.850;2023-03-14T02:34:53;16.40;;;7.75;;
32333;SDS011;18810;53.040;8.850;2023-03-14T02:37:22;16.60;;;6.82;;
32333;SDS011;18810;53.040;8.850;2023-03-14T02:39:51;15.68;;;6.57;;
32333;SDS011;18810;53.040;8.850;2023-03-14T02:42:17;14.48;;;6.40;;
32333;SDS011;18810;53.040;8.850;2023-03-14T02:47:33;11.20;;;6.05;;
32333;SDS011;18810;53.040;8.850;2023-03-14T02:50:09;9.57;;;5.50;;
32333;SDS011;18810;53.040;8.850;2023-03-14T02:52:38;10.43;;;5.70;;
32333;SDS011;18810;53.040;8.850;2023-03-14T02:55:04;12.57;;;6.20;;
32333;SDS011;18810;53.040;8.850;2023-03-14T02:57:30;13.43;;;6.25;;
32333;SDS011;18810;53.040;8.850;2023-03-14T02:59:59;12.40;;;4.93;;
32333;SDS011;18810;53.040;8.850;2023-03-14T03:02:27;12.60;;;5.25;;
32333;SDS011;18810;53.040;8.850;2023-03-14T03:04:52;10.60;;;5.30;;
32333;SDS011;18810;53.040;8.850;2023-03-14T03:07:18;13.60;;;5.35;;
32333;SDS011;18810;53.040;8.850;2023-03-14T03:09:44;13.32;;;5.47;;
32333;SDS011;18810;53.040;8.850;2023-03-14T03:12:10;12.20;;;5.28;;
32333;SDS011;18810;53.040;8.850;2023-03-14T03:14:36;12.63;;;5.78;;
32333;SDS011;18810;53.040;8.850;2023-03-14T03:17:05;13.40;;;5.15;;
32333;SDS011;18810;53.040;8.850;2023-03-14T03:19:31;13.48;;;4.97;;
32333;SDS011;18810;53.040;8.850;2023-03-14T03:21:57;15.82;;;5.05;;
32333;SDS011;18810;53.040;8.850;2023-03-14T03:24:24;11.95;;;4.82;;
32333;SDS011;18810;53.040;8.850;2023-03-14T03:26:50;15.35;;;5.68;;
32333;SDS011;18810;53.040;8.850;2023-03-14T03:29:16;13.85;;;5.88;;
32333;SDS011;18810;53.040;8.850;2023-03-14T03:31:41;10.95;;;5.20;;
32333;SDS011;18810;53.040;8.850;2023-03-14T03:34:10;10.38;;;5.03;;
32333;SDS011;18810;53.040;8.850;2023-03-14T03:36:36;9.35;;;4.80;;
32333;SDS011;18810;53.040;8.850;2023-03-14T03:39:02;15.55;;;5.45;;
32333;SDS011;18810;53.040;8.850;2023-03-14T03:41:28;11.77;;;4.97;;
32333;SDS011;18810;53.040;8.850;2023-03-14T03:43:54;13.25;;;5.38;;
32333;SDS011;18810;53.040;8.850;2023-03-14T03:46:20;9.27;;;5.85;;
32333;SDS011;18810;53.040;8.850;2023-03-14T03:48:47;9.38;;;5.15;;
32333;SDS011;18810;53.040;8.850;2023-03-14T03:51:15;11.27;;;4.97;;
32333;SDS011;18810;53.040;8.850;2023-03-14T03:53:42;12.80;;;5.70;;
32333;SDS011;18810;53.040;8.850;2023-03-14T03:56:08;14.55;;;5.88;;
32333;SDS011;18810;53.040;8.850;2023-03-14T03:58:34;14.00;;;5.75;;
32333;SDS011;18810;53.040;8.850;2023-03-14T04:01:00;8.88;;;5.78;;
32333;SDS011;18810;53.040;8.850;2023-03-14T04:03:26;8.80;;;5.53;;
32333;SDS011;18810;53.040;8.850;2023-03-14T04:08:46;10.40;;;5.40;;
32333;SDS011;18810;53.040;8.850;2023-03-14T04:11:12;9.60;;;6.10;;
32333;SDS011;18810;53.040;8.850;2023-03-14T04:13:38;15.30;;;6.25;;
32333;SDS011;18810;53.040;8.850;2023-03-14T04:16:08;10.82;;;6.22;;
32333;SDS011;18810;53.040;8.850;2023-03-14T04:18:46;8.90;;;5.97;;
32333;SDS011;18810;53.040;8.850;2023-03-14T04:21:12;12.73;;;5.93;;
32333;SDS011;18810;53.040;8.850;2023-03-14T04:23:38;11.75;;;6.88;;
32333;SDS011;18810;53.040;8.850;2023-03-14T04:26:04;13.68;;;6.80;;
32333;SDS011;18810;53.040;8.850;2023-03-14T04:28:30;12.80;;;7.32;;
32333;SDS011;18810;53.040;8.850;2023-03-14T04:30:55;13.43;;;7.30;;
32333;SDS011;18810;53.040;8.850;2023-03-14T04:33:21;13.00;;;6.95;;
32333;SDS011;18810;53.040;8.850;2023-03-14T04:35:47;15.95;;;7.93;;
32333;SDS011;18810;53.040;8.850;2023-03-14T04:38:15;14.93;;;7.18;;
32333;SDS011;18810;53.040;8.850;2023-03-14T04:40:40;11.75;;;6.70;;
32333;SDS011;18810;53.040;8.850;2023-03-14T04:43:07;10.45;;;7.28;;
32333;SDS011;18810;53.040;8.850;2023-03-14T04:45:35;13.90;;;6.80;;
32333;SDS011;18810;53.040;8.850;2023-03-14T04:48:01;13.25;;;6.10;;
32333;SDS011;18810;53.040;8.850;2023-03-14T04:50:27;10.85;;;6.22;;
32333;SDS011;18810;53.040;8.850;2023-03-14T04:52:53;11.95;;;6.90;;
32333;SDS011;18810;53.040;8.850;2023-03-14T04:55:18;12.48;;;6.15;;
32333;SDS011;18810;53.040;8.850;2023-03-14T04:57:44;13.50;;;6.28;;
32333;SDS011;18810;53.040;8.850;2023-03-14T05:00:10;16.00;;;7.30;;
32333;SDS011;18810;53.040;8.850;2023-03-14T05:02:36;11.80;;;5.70;;
32333;SDS011;18810;53.040;8.850;2023-03-14T05:05:02;12.02;;;5.68;;
32333;SDS011;18810;53.040;8.850;2023-03-14T05:07:28;9.38;;;5.82;;
32333;SDS011;18810;53.040;8.850;2023-03-14T05:09:53;10.82;;;5.85;;
32333;SDS011;18810;53.040;8.850;2023-03-14T05:12:20;14.63;;;6.22;;
32333;SDS011;18810;53.040;8.850;2023-03-14T05:14:46;16.90;;;6.13;;
32333;SDS011;18810;53.040;8.850;2023-03-14T05:17:11;14.20;;;6.00;;
32333;SDS011;18810;53.040;8.850;2023-03-14T05:19:39;10.55;;;6.00;;
32333;SDS011;18810;53.040;8.850;2023-03-14T05:22:05;10.80;;;5.70;;
32333;SDS011;18810;53.040;8.850;2023-03-14T05:24:31;12.43;;;5.18;;
32333;SDS011;18810;53.040;8.850;2023-03-14T05:26:57;11.82;;;4.30;;
32333;SDS011;18810;53.040;8.850;2023-03-14T05:29:23;10.30;;;4.70;;
32333;SDS011;18810;53.040;8.850;2023-03-14T05:31:49;9.75;;;3.97;;
32333;SDS011;18810;53.040;8.850;2023-03-14T05:34:15;8.25;;;3.58;;
32333;SDS011;18810;53.040;8.850;2023-03-14T05:36:40;7.47;;;3.20;;
32333;SDS011;18810;53.040;8.850;2023-03-14T05:39:06;8.80;;;3.00;;
32333;SDS011;18810;53.040;8.850;2023-03-14T05:41:32;10.82;;;3.15;;
32333;SDS011;18810;53.040;8.850;2023-03-14T05:43:57;10.13;;;2.90;;
32333;SDS011;18810;53.040;8.850;2023-03-14T05:46:23;9.95;;;3.47;;
32333;SDS011;18810;53.040;8.850;2023-03-14T05:48:49;8.57;;;3.83;;
32333;SDS011;18810;53.040;8.850;2023-03-14T05:51:15;8.25;;;3.88;;
32333;SDS011;18810;53.040;8.850;2023-03-14T05:53:41;12.38;;;4.45;;
32333;SDS011;18810;53.040;8.850;2023-03-14T05:56:06;9.75;;;4.32;;
32333;SDS011;18810;53.040;8.850;2023-03-14T05:58:32;9.77;;;4.15;;
32333;SDS011;18810;53.040;8.850;2023-03-14T06:01:01;12.20;;;4.03;;
32333;SDS011;18810;53.040;8.850;2023-03-14T06:03:29;9.50;;;4.05;;
32333;SDS011;18810;53.040;8.850;2023-03-14T06:05:55;9.73;;;3.40;;
32333;SDS011;18810;53.040;8.850;2023-03-14T06:08:20;6.50;;;3.17;;
32333;SDS011;18810;53.040;8.850;2023-03-14T06:10:46;11.05;;;3.17;;
32333;SDS011;18810;53.040;8.850;2023-03-14T06:13:12;7.72;;;2.75;;
32333;SDS011;18810;53.040;8.850;2023-03-14T06:15:38;7.72;;;2.58;;
32333;SDS011;18810;53.040;8.850;2023-03-14T06:18:04;6.93;;;2.60;;
32333;SDS011;18810;53.040;8.850;2023-03-14T06:20:29;7.07;;;2.20;;
32333;SDS011;18810;53.040;8.850;2023-03-14T06:22:55;6.32;;;2.53;;
32333;SDS011;18810;53.040;8.850;2023-03-14T06:25:21;6.35;;;2.42;;
32333;SDS011;18810;53.040;8.850;2023-03-14T06:27:46;5.57;;;2.20;;
32333;SDS011;18810;53.040;8.850;2023-03-14T06:30:12;7.38;;;2.10;;
32333;SDS011;18810;53.040;8.850;2023-03-14T06:32:38;6.25;;;2.25;;
32333;SDS011;18810;53.040;8.850;2023-03-14T06:35:03;6.47;;;2.13;;
32333;SDS011;18810;53.040;8.850;2023-03-14T06:37:29;5.53;;;1.80;;
32333;SDS011;18810;53.040;8.850;2023-03-14T06:39:55;7.20;;;2.03;;
32333;SDS011;18810;53.040;8.850;2023-03-14T06:42:21;5.03;;;1.98;;
32333;SDS011;18810;53.040;8.850;2023-03-14T06:44:47;4.25;;;2.17;;
32333;SDS011;18810;53.040;8.850;2023-03-14T06:47:13;5.30;;;2.05;;
32333;SDS011;18810;53.040;8.850;2023-03-14T06:49:39;7.38;;;2.25;;
32333;SDS011;18810;53.040;8.850;2023-03-14T06:52:07;9.65;;;2.42;;
32333;SDS011;18810;53.040;8.850;2023-03-14T06:54:33;5.93;;;2.47;;
32333;SDS011;18810;53.040;8.850;2023-03-14T06:56:59;5.97;;;2.88;;
32333;SDS011;18810;53.040;8.850;2023-03-14T06:59:24;5.90;;;2.55;;
32333;SDS011;18810;53.040;8.850;2023-03-14T07:01:50;8.27;;;3.38;;
32333;SDS011;18810;53.040;8.850;2023-03-14T07:04:16;7.60;;;3.50;;
32333;SDS011;18810;53.040;8.850;2023-03-14T07:06:42;7.13;;;3.20;;
32333;SDS011;18810;53.040;8.850;2023-03-14T07:09:12;8.30;;;3.28;;
32333;SDS011;18810;53.040;8.850;2023-03-14T07:11:38;10.40;;;3.47;;
32333;SDS011;18810;53.040;8.850;2023-03-14T07:14:04;10.30;;;3.60;;
32333;SDS011;18810;53.040;8.850;2023-03-14T07:16:30;10.30;;;3.83;;
32333;SDS011;18810;53.040;8.850;2023-03-14T07:18:58;7.85;;;3.53;;
32333;SDS011;18810;53.040;8.850;2023-03-14T07:21:24;13.25;;;3.80;;
32333;SDS011;18810;53.040;8.850;2023-03-14T07:23:50;10.07;;;4.00;;
32333;SDS011;18810;53.040;8.850;2023-03-14T07:26:16;10.93;;;3.80;;
32333;SDS011;18810;53.040;8.850;2023-03-14T07:28:42;12.63;;;3.72;;
32333;SDS011;18810;53.040;8.850;2023-03-14T07:31:07;11.80;;;3.60;;
32333;SDS011;18810;53.040;8.850;2023-03-14T07:33:33;8.00;;;3.20;;
32333;SDS011;18810;53.040;8.850;2023-03-14T07:35:59;11.57;;;3.50;;
32333;SDS011;18810;53.040;8.850;2023-03-14T07:38:25;12.05;;;3.88;;
32333;SDS011;18810;53.040;8.850;2023-03-14T07:40:57;11.48;;;3.80;;
32333;SDS011;18810;53.040;8.850;2023-03-14T07:43:26;15.07;;;4.75;;
32333;SDS011;18810;53.040;8.850;2023-03-14T07:45:51;12.50;;;4.30;;
32333;SDS011;18810;53.040;8.850;2023-03-14T07:48:17;8.82;;;3.50;;
32333;SDS011;18810;53.040;8.850;2023-03-14T07:50:43;14.32;;;4.50;;
32333;SDS011;18810;53.040;8.850;2023-03-14T07:53:13;13.18;;;3.83;;
32333;SDS011;18810;53.040;8.850;2023-03-14T07:55:39;11.38;;;3.72;;
32333;SDS011;18810;53.040;8.850;2023-03-14T07:58:05;10.18;;;4.05;;
32333;SDS011;18810;53.040;8.850;2023-03-14T08:00:31;12.45;;;4.00;;
32333;SDS011;18810;53.040;8.850;2023-03-14T08:02:57;11.68;;;3.92;;
32333;SDS011;18810;53.040;8.850;2023-03-14T08:05:23;12.60;;;4.50;;
32333;SDS011;18810;53.040;8.850;2023-03-14T08:07:50;9.88;;;3.70;;
32333;SDS011;18810;53.040;8.850;2023-03-14T08:10:16;11.80;;;4.80;;
32333;SDS011;18810;53.040;8.850;2023-03-14T08:12:51;12.75;;;3.92;;
32333;SDS011;18810;53.040;8.850;2023-03-14T08:15:21;12.18;;;4.22;;
32333;SDS011;18810;53.040;8.850;2023-03-14T08:17:48;15.80;;;3.85;;
32333;SDS011;18810;53.040;8.850;2023-03-14T08:20:19;8.57;;;4.20;;
32333;SDS011;18810;53.040;8.850;2023-03-14T08:22:46;9.45;;;3.90;;
32333;SDS011;18810;53.040;8.850;2023-03-14T08:25:12;11.88;;;5.13;;
32333;SDS011;18810;53.040;8.850;2023-03-14T08:27:39;13.85;;;4.72;;
32333;SDS011;18810;53.040;8.850;2023-03-14T08:30:07;17.15;;;5.78;;
32333;SDS011;18810;53.040;8.850;2023-03-14T08:32:34;11.40;;;4.80;;
32333;SDS011;18810;53.040;8.850;2023-03-14T08:35:00;10.23;;;4.20;;
32333;SDS011;18810;53.040;8.850;2023-03-14T08:37:26;14.93;;;4.05;;
32333;SDS011;18810;53.040;8.850;2023-03-14T08:39:52;9.90;;;5.93;;
32333;SDS011;18810;53.040;8.850;2023-03-14T08:42:18;9.25;;;4.00;;
32333;SDS011;18810;53.040;8.850;2023-03-14T08:44:44;9.13;;;5.78;;
32333;SDS011;18810;53.040;8.850;2023-03-14T08:47:10;9.45;;;3.83;;
32333;SDS011;18810;53.040;8.850;2023-03-14T08:49:36;7.88;;;3.47;;
32333;SDS011;18810;53.040;8.850;2023-03-14T08:52:04;5.80;;;2.95;;
32333;SDS011;18810;53.040;8.850;2023-03-14T08:54:31;6.38;;;3.13;;
32333;SDS011;18810;53.040;8.850;2023-03-14T08:56:57;5.15;;;2.50;;
32333;SDS011;18810;53.040;8.850;2023-03-14T08:59:23;6.93;;;2.92;;
32333;SDS011;18810;53.040;8.850;2023-03-14T09:01:49;8.23;;;3.08;;
32333;SDS011;18810;53.040;8.850;2023-03-14T09:04:18;5.63;;;2.33;;
32333;SDS011;18810;53.040;8.850;2023-03-14T09:06:44;6.30;;;2.10;;
32333;SDS011;18810;53.040;8.850;2023-03-14T09:09:10;6.68;;;2.72;;
32333;SDS011;18810;53.040;8.850;2023-03-14T09:11:35;9.35;;;2.53;;
32333;SDS011;18810;53.040;8.850;2023-03-14T09:14:01;6.38;;;2.95;;
32333;SDS011;18810;53.040;8.850;2023-03-14T09:16:27;6.15;;;2.47;;
32333;SDS011;18810;53.040;8.850;2023-03-14T09:18:52;5.75;;;2.30;;
32333;SDS011;18810;53.040;8.850;2023-03-14T09:21:20;3.47;;;1.80;;
32333;SDS011;18810;53.040;8.850;2023-03-14T09:23:46;7.40;;;1.63;;
32333;SDS011;18810;53.040;8.850;2023-03-14T09:26:12;5.13;;;1.38;;
32333;SDS011;18810;53.040;8.850;2023-03-14T09:28:38;2.97;;;1.02;;
32333;SDS011;18810;53.040;8.850;2023-03-14T09:31:07;5.35;;;1.20;;
32333;SDS011;18810;53.040;8.850;2023-03-14T09:33:34;3.75;;;1.30;;
32333;SDS011;18810;53.040;8.850;2023-03-14T09:36:00;5.50;;;1.33;;
32333;SDS011;18810;53.040;8.850;2023-03-14T09:38:26;7.25;;;1.55;;
32333;SDS011;18810;53.040;8.850;2023-03-14T09:40:53;5.43;;;1.45;;
32333;SDS011;18810;53.040;8.850;2023-03-14T09:43:20;3.33;;;1.20;;
32333;SDS011;18810;53.040;8.850;2023-03-14T09:45:48;4.45;;;1.50;;
32333;SDS011;18810;53.040;8.850;2023-03-14T09:48:20;3.92;;;1.30;;
32333;SDS011;18810;53.040;8.850;2023-03-14T09:50:50;3.85;;;1.17;;
32333;SDS011;18810;53.040;8.850;2023-03-14T09:53:19;4.47;;;1.00;;
32333;SDS011;18810;53.040;8.850;2023-03-14T09:55:49;2.70;;;1.15;;
32333;SDS011;18810;53.040;8.850;2023-03-14T09:58:20;3.17;;;1.10;;
32333;SDS011;18810;53.040;8.850;2023-03-14T10:00:46;3.78;;;1.02;;
32333;SDS011;18810;53.040;8.850;2023-03-14T10:05:58;5.78;;;1.50;;
32333;SDS011;18810;53.040;8.850;2023-03-14T10:08:24;2.25;;;1.10;;
32333;SDS011;18810;53.040;8.850;2023-03-14T10:10:50;5.05;;;1.20;;
32333;SDS011;18810;53.040;8.850;2023-03-14T10:13:22;4.07;;;1.40;;
32333;SDS011;18810;53.040;8.850;2023-03-14T10:15:53;3.20;;;1.25;;
32333;SDS011;18810;53.040;8.850;2023-03-14T10:18:28;2.38;;;1.00;;
32333;SDS011;18810;53.040;8.850;2023-03-14T10:21:39;1.52;;;1.10;;
32333;SDS011;18810;53.040;8.850;2023-03-14T10:23:50;1.80;;;1.30;;
32333;SDS011;18810;53.040;8.850;2023-03-14T10:26:17;1.50;;;1.10;;
32333;SDS011;18810;53.040;8.850;2023-03-14T10:28:51;2.47;;;1.38;;
32333;SDS011;18810;53.040;8.850;2023-03-14T10:31:18;1.27;;;1.08;;
32333;SDS011;18810;53.040;8.850;2023-03-14T10:34:00;0.95;;;0.90;;
32333;SDS011;18810;53.040;8.850;2023-03-14T10:36:28;1.30;;;1.20;;
32333;SDS011;18810;53.040;8.850;2023-03-14T10:39:15;3.30;;;1.50;;
32333;SDS011;18810;53.040;8.850;2023-03-14T10:41:55;5.35;;;1.30;;
32333;SDS011;18810;53.040;8.850;2023-03-14T10:44:35;3.72;;;1.10;;
32333;SDS011;18810;53.040;8.850;2023-03-14T10:47:03;3.08;;;1.02;;
32333;SDS011;18810;53.040;8.850;2023-03-14T10:49:31;3.13;;;1.40;;
32333;SDS011;18810;53.040;8.850;2023-03-14T10:54:48;3.45;;;1.40;;
32333;SDS011;18810;53.040;8.850;2023-03-14T10:57:19;2.03;;;1.50;;
32333;SDS011;18810;53.040;8.850;2023-03-14T10:59:46;3.63;;;1.30;;
32333;SDS011;18810;53.040;8.850;2023-03-14T11:02:21;5.00;;;1.40;;
32333;SDS011;18810;53.040;8.850;2023-03-14T11:04:55;4.32;;;1.52;;
32333;SDS011;18810;53.040;8.850;2023-03-14T11:07:36;4.22;;;1.42;;
32333;SDS011;18810;53.040;8.850;2023-03-14T11:16:09;7.38;;;1.60;;
32333;SDS011;18810;53.040;8.850;2023-03-14T11:18:51;5.00;;;1.77;;
32333;SDS011;18810;53.040;8.850;2023-03-14T11:26:59;6.93;;;2.20;;
32333;SDS011;18810;53.040;8.850;2023-03-14T11:35:12;8.00;;;2.15;;
32333;SDS011;18810;53.040;8.850;2023-03-14T11:37:46;4.75;;;1.70;;
32333;SDS011;18810;53.040;8.850;2023-03-14T11:40:33;7.40;;;2.40;;
32333;SDS011;18810;53.040;8.850;2023-03-14T11:43:04;7.85;;;2.63;;
32333;SDS011;18810;53.040;8.850;2023-03-14T11:45:34;8.90;;;3.22;;
32333;SDS011;18810;53.040;8.850;2023-03-14T11:50:43;12.07;;;2.80;;
32333;SDS011;18810;53.040;8.850;2023-03-14T11:53:16;11.07;;;3.35;;
32333;SDS011;18810;53.040;8.850;2023-03-14T11:55:47;7.95;;;2.70;;
32333;SDS011;18810;53.040;8.850;2023-03-14T12:00:44;11.07;;;2.72;;
32333;SDS011;18810;53.040;8.850;2023-03-14T12:03:21;8.48;;;2.75;;
32333;SDS011;18810;53.040;8.850;2023-03-14T12:16:47;13.23;;;2.80;;
32333;SDS011;18810;53.040;8.850;2023-03-14T12:22:35;16.58;;;3.30;;
32333;SDS011;18810;53.040;8.850;2023-03-14T12:25:18;24.80;;;4.15;;
32333;SDS011;18810;53.040;8.850;2023-03-14T12:38:02;24.52;;;4.30;;
32333;SDS011;18810;53.040;8.850;2023-03-14T12:40:31;30.35;;;4.20;;
32333;SDS011;18810;53.040;8.850;2023-03-14T12:43:01;18.17;;;3.60;;
32333;SDS011;18810;53.040;8.850;2023-03-14T12:45:35;21.73;;;4.45;;
32333;SDS011;18810;53.040;8.850;2023-03-14T12:48:08;22.02;;;3.33;;
32333;SDS011;18810;53.040;8.850;2023-03-14T12:54:03;15.27;;;3.20;;
32333;SDS011;18810;53.040;8.850;2023-03-14T12:59:13;24.05;;;3.88;;
32333;SDS011;18810;53.040;8.850;2023-03-14T13:02:00;19.45;;;4.53;;
32333;SDS011;18810;53.040;8.850;2023-03-14T13:07:34;15.18;;;3.58;;
32333;SDS011;18810;53.040;8.850;2023-03-14T13:12:47;17.38;;;2.70;;
32333;SDS011;18810;53.040;8.850;2023-03-14T13:18:12;17.67;;;3.03;;
32333;SDS011;18810;53.040;8.850;2023-03-14T13:20:41;12.23;;;1.98;;
32333;SDS011;18810;53.040;8.850;2023-03-14T13:23:24;15.35;;;2.90;;
32333;SDS011;18810;53.040;8.850;2023-03-14T13:25:55;13.00;;;2.75;;
32333;SDS011;18810;53.040;8.850;2023-03-14T13:28:22;11.27;;;2.38;;
32333;SDS011;18810;53.040;8.850;2023-03-14T13:30:49;8.93;;;2.22;;
32333;SDS011;18810;53.040;8.850;2023-03-14T13:33:20;14.50;;;2.53;;
32333;SDS011;18810;53.040;8.850;2023-03-14T13:36:08;8.27;;;2.30;;
32333;SDS011;18810;53.040;8.850;2023-03-14T13:38:35;10.73;;;2.40;;
32333;SDS011;18810;53.040;8.850;2023-03-14T13:41:04;15.95;;;2.40;;
32333;SDS011;18810;53.040;8.850;2023-03-14T13:43:33;15.95;;;2.60;;
32333;SDS011;18810;53.040;8.850;2023-03-14T13:48:31;13.45;;;2.65;;
32333;SDS011;18810;53.040;8.850;2023-03-14T13:51:10;12.30;;;2.65;;
32333;SDS011;18810;53.040;8.850;2023-03-14T13:53:51;10.07;;;2.90;;
32333;SDS011;18810;53.040;8.850;2023-03-14T13:56:23;9.23;;;2.78;;
32333;SDS011;18810;53.040;8.850;2023-03-14T13:58:50;9.55;;;2.00;;
32333;SDS011;18810;53.040;8.850;2023-03-14T14:01:17;9.50;;;2.22;;
32333;SDS011;18810;53.040;8.850;2023-03-14T14:03:56;10.70;;;2.40;;
32333;SDS011;18810;53.040;8.850;2023-03-14T14:06:44;11.27;;;2.30;;
32333;SDS011;18810;53.040;8.850;2023-03-14T14:11:52;10.73;;;2.28;;
32333;SDS011;18810;53.040;8.850;2023-03-14T14:14:21;9.93;;;2.05;;
32333;SDS011;18810;53.040;8.850;2023-03-14T14:16:51;6.15;;;2.10;;
32333;SDS011;18810;53.040;8.850;2023-03-14T14:19:18;6.47;;;1.80;;
32333;SDS011;18810;53.040;8.850;2023-03-14T14:21:45;4.60;;;2.00;;
32333;SDS011;18810;53.040;8.850;2023-03-14T14:24:14;4.03;;;1.73;;
32333;SDS011;18810;53.040;8.850;2023-03-14T14:26:47;10.48;;;2.60;;
32333;SDS011;18810;53.040;8.850;2023-03-14T14:29:37;11.35;;;2.50;;
32333;SDS011;18810;53.040;8.850;2023-03-14T14:37:20;10.85;;;2.65;;
32333;SDS011;18810;53.040;8.850;2023-03-14T14:39:51;8.05;;;2.55;;
32333;SDS011;18810;53.040;8.850;2023-03-14T14:42:20;9.15;;;2.20;;
32333;SDS011;18810;53.040;8.850;2023-03-14T14:44:49;12.52;;;3.17;;
32333;SDS011;18810;53.040;8.850;2023-03-14T14:47:18;15.55;;;3.00;;
32333;SDS011;18810;53.040;8.850;2023-03-14T14:49:47;15.57;;;2.83;;
32333;SDS011;18810;53.040;8.850;2023-03-14T14:52:15;8.73;;;2.38;;
32333;SDS011;18810;53.040;8.850;2023-03-14T14:55:01;15.80;;;2.30;;
32333;SDS011;18810;53.040;8.850;2023-03-14T14:57:29;11.57;;;2.72;;
32333;SDS011;18810;53.040;8.850;2023-03-14T15:00:02;12.00;;;2.30;;
32333;SDS011;18810;53.040;8.850;2023-03-14T15:02:35;12.23;;;2.78;;
32333;SDS011;18810;53.040;8.850;2023-03-14T15:05:12;12.15;;;2.25;;
32333;SDS011;18810;53.040;8.850;2023-03-14T15:07:42;8.65;;;2.33;;
32333;SDS011;18810;53.040;8.850;2023-03-14T15:10:10;14.30;;;3.15;;
32333;SDS011;18810;53.040;8.850;2023-03-14T15:12:40;8.40;;;2.05;;
32333;SDS011;18810;53.040;8.850;2023-03-14T15:15:07;6.45;;;1.83;;
32333;SDS011;18810;53.040;8.850;2023-03-14T15:17:37;5.30;;;1.70;;
32333;SDS011;18810;53.040;8.850;2023-03-14T15:20:03;15.13;;;2.45;;
32333;SDS011;18810;53.040;8.850;2023-03-14T15:22:31;7.15;;;1.75;;
32333;SDS011;18810;53.040;8.850;2023-03-14T15:24:57;4.60;;;1.98;;
32333;SDS011;18810;53.040;8.850;2023-03-14T15:27:23;10.45;;;2.70;;
32333;SDS011;18810;53.040;8.850;2023-03-14T15:29:48;7.40;;;2.13;;
32333;SDS011;18810;53.040;8.850;2023-03-14T15:32:15;9.68;;;1.60;;
32333;SDS011;18810;53.040;8.850;2023-03-14T15:34:41;10.00;;;2.60;;
32333;SDS011;18810;53.040;8.850;2023-03-14T15:37:11;9.32;;;2.22;;
32333;SDS011;18810;53.040;8.850;2023-03-14T15:39:41;8.18;;;2.78;;
32333;SDS011;18810;53.040;8.850;2023-03-14T15:42:08;7.03;;;2.30;;
32333;SDS011;18810;53.040;8.850;2023-03-14T15:44:34;6.50;;;2.10;;
32333;SDS011;18810;53.040;8.850;2023-03-14T15:47:00;11.02;;;2.35;;
32333;SDS011;18810;53.040;8.850;2023-03-14T15:49:26;7.28;;;1.90;;
32333;SDS011;18810;53.040;8.850;2023-03-14T15:51:53;10.18;;;2.42;;
32333;SDS011;18810;53.040;8.850;2023-03-14T15:54:18;12.93;;;2.55;;
32333;SDS011;18810;53.040;8.850;2023-03-14T15:56:44;15.25;;;2.25;;
32333;SDS011;18810;53.040;8.850;2023-03-14T15:59:10;13.55;;;3.03;;
32333;SDS011;18810;53.040;8.850;2023-03-14T16:01:36;12.05;;;2.40;;
32333;SDS011;18810;53.040;8.850;2023-03-14T16:04:02;7.93;;;2.15;;
32333;SDS011;18810;53.040;8.850;2023-03-14T16:06:28;13.38;;;3.03;;
32333;SDS011;18810;53.040;8.850;2023-03-14T16:08:55;14.05;;;2.72;;
32333;SDS011;18810;53.040;8.850;2023-03-14T16:11:22;13.43;;;2.45;;
32333;SDS011;18810;53.040;8.850;2023-03-14T16:13:48;9.00;;;2.25;;
32333;SDS011;18810;53.040;8.850;2023-03-14T16:16:14;6.93;;;2.15;;